createdAt,value
2022-12-29T00:01:10.329Z,58.91
2022-12-29T00:03:38.254Z,59.08
2022-12-29T00:06:06.700Z,59.00
2022-12-29T00:08:41.272Z,59.21
2022-12-29T00:11:14.836Z,58.93
2022-12-29T00:14:01.790Z,59.04
2022-12-29T00:16:30.762Z,59.10
2022-12-29T00:18:59.413Z,58.93
2022-12-29T00:21:46.991Z,59.01
2022-12-29T00:24:26.610Z,59.02
2022-12-29T00:27:18.449Z,59.08
2022-12-29T00:30:05.130Z,59.11
2022-12-29T00:33:05.576Z,58.91
2022-12-29T00:35:38.732Z,58.97
2022-12-29T00:38:27.328Z,58.97
2022-12-29T00:41:13.965Z,58.82
2022-12-29T00:44:00.618Z,58.93
2022-12-29T00:46:28.904Z,58.78
2022-12-29T00:49:16.006Z,58.78
2022-12-29T00:51:46.432Z,58.78
2022-12-29T00:54:15.445Z,58.84
2022-12-29T00:56:43.416Z,58.86
2022-12-29T00:59:12.590Z,58.86
2022-12-29T01:01:40.815Z,58.86
2022-12-29T01:04:09.565Z,58.92
2022-12-29T01:06:39.512Z,58.90
2022-12-29T01:09:26.699Z,58.92
2022-12-29T01:11:54.669Z,58.93
2022-12-29T01:14:23.719Z,58.77
2022-12-29T01:16:52.022Z,58.77
2022-12-29T01:19:20.569Z,58.63
2022-12-29T01:21:48.750Z,58.47
2022-12-29T01:24:17.595Z,58.41
2022-12-29T01:26:46.424Z,58.39
2022-12-29T01:29:14.368Z,58.24
2022-12-29T01:31:42.229Z,58.05
2022-12-29T01:34:10.446Z,58.07
2022-12-29T01:36:39.607Z,57.97
2022-12-29T01:39:07.733Z,57.95
2022-12-29T01:41:35.603Z,57.83
2022-12-29T01:44:03.644Z,57.86
2022-12-29T01:46:37.771Z,57.76
2022-12-29T01:49:08.364Z,57.75
2022-12-29T01:51:39.909Z,57.60
2022-12-29T01:54:11.281Z,57.68
2022-12-29T01:56:39.395Z,57.62
2022-12-29T01:59:12.335Z,57.77
2022-12-29T02:01:40.263Z,57.79
2022-12-29T02:04:11.914Z,57.90
2022-12-29T02:06:47.295Z,57.65
2022-12-29T02:09:16.271Z,57.55
2022-12-29T02:11:46.488Z,57.55
2022-12-29T02:14:15.392Z,57.72
2022-12-29T02:17:07.934Z,57.64
2022-12-29T02:19:42.795Z,57.66
2022-12-29T02:22:37.489Z,57.72
2022-12-29T02:25:26.681Z,57.54
2022-12-29T02:28:10.248Z,57.51
2022-12-29T02:30:53.961Z,57.35
2022-12-29T02:33:29.669Z,57.43
2022-12-29T02:36:10.865Z,57.28
2022-12-29T02:38:53.930Z,57.36
2022-12-29T02:41:33.014Z,57.06
2022-12-29T02:44:19.476Z,56.99
2022-12-29T02:47:08.141Z,56.88
2022-12-29T02:50:08.164Z,56.82
2022-12-29T02:52:40.510Z,56.77
2022-12-29T02:55:08.488Z,56.74
2022-12-29T02:57:36.608Z,56.75
2022-12-29T03:00:16.660Z,56.92
2022-12-29T03:02:49.093Z,56.82
2022-12-29T03:05:45.127Z,56.82
2022-12-29T03:08:29.795Z,56.67
2022-12-29T03:11:27.930Z,56.62
2022-12-29T03:14:21.735Z,56.87
2022-12-29T03:16:55.262Z,57.13
2022-12-29T03:19:29.481Z,57.18
2022-12-29T03:22:23.891Z,56.89
2022-12-29T03:24:59.781Z,56.70
2022-12-29T03:27:32.701Z,56.40
2022-12-29T03:30:06.114Z,56.28
2022-12-29T03:36:59.912Z,56.33
2022-12-29T03:39:29.801Z,56.13
2022-12-29T03:42:03.835Z,55.89
2022-12-29T03:44:41.098Z,55.68
2022-12-29T03:47:11.493Z,55.27
2022-12-29T03:49:39.813Z,55.44
2022-12-29T03:52:09.530Z,55.37
2022-12-29T03:54:41.744Z,55.17
2022-12-29T03:57:11.394Z,54.76
2022-12-29T03:59:59.427Z,54.91
2022-12-29T04:02:27.261Z,54.52
2022-12-29T04:04:55.710Z,54.44
2022-12-29T04:07:24.583Z,54.25
2022-12-29T04:09:54.606Z,54.25
2022-12-29T04:12:25.149Z,54.17
2022-12-29T04:14:53.025Z,54.00
2022-12-29T04:17:21.252Z,54.22
2022-12-29T04:19:52.027Z,54.17
2022-12-29T04:22:20.763Z,54.06
2022-12-29T04:24:48.475Z,54.22
2022-12-29T04:27:16.428Z,54.51
2022-12-29T04:30:15.902Z,54.77
2022-12-29T04:32:59.406Z,54.89
2022-12-29T04:35:27.431Z,54.75
2022-12-29T04:37:55.298Z,54.66
2022-12-29T04:40:24.373Z,54.55
2022-12-29T04:42:52.240Z,54.59
2022-12-29T04:45:21.178Z,54.44
2022-12-29T04:47:53.864Z,54.21
2022-12-29T04:50:42.586Z,54.14
2022-12-29T04:53:20.949Z,54.00
2022-12-29T04:55:52.591Z,54.00
2022-12-29T04:58:23.389Z,53.97
2022-12-29T05:00:53.378Z,54.01
2022-12-29T05:03:24.123Z,53.95
2022-12-29T05:05:55.198Z,54.00
2022-12-29T05:08:27.974Z,54.11
2022-12-29T05:10:58.757Z,54.15
2022-12-29T05:13:26.668Z,54.13
2022-12-29T05:15:55.259Z,53.98
2022-12-29T05:18:25.098Z,54.05
2022-12-29T05:20:52.915Z,53.96
2022-12-29T05:23:22.371Z,54.04
2022-12-29T05:25:56.793Z,53.99
2022-12-29T05:28:37.672Z,53.98
2022-12-29T05:31:12.413Z,53.91
2022-12-29T05:33:40.704Z,53.80
2022-12-29T05:36:10.139Z,53.88
2022-12-29T05:38:41.832Z,53.82
2022-12-29T05:41:10.010Z,53.99
2022-12-29T05:43:56.491Z,53.87
2022-12-29T05:46:30.566Z,53.74
2022-12-29T05:49:24.970Z,53.80
2022-12-29T05:52:18.807Z,53.59
2022-12-29T05:54:47.585Z,53.20
2022-12-29T05:57:18.566Z,53.38
2022-12-29T05:59:51.339Z,53.30
2022-12-29T06:02:19.260Z,53.10
2022-12-29T06:04:47.144Z,53.05
2022-12-29T06:07:14.963Z,53.13
2022-12-29T06:09:45.186Z,53.14
2022-12-29T06:12:13.693Z,52.82
2022-12-29T06:14:43.800Z,52.86
2022-12-29T06:17:12.405Z,52.72
2022-12-29T06:19:41.084Z,52.53
2022-12-29T06:22:08.963Z,52.36
2022-12-29T06:24:37.338Z,52.12
2022-12-29T06:27:05.223Z,52.09
2022-12-29T06:29:33.345Z,52.12
2022-12-29T06:32:01.228Z,52.11
2022-12-29T06:34:30.147Z,52.16
2022-12-29T06:36:58.019Z,52.07
2022-12-29T06:39:25.769Z,51.96
2022-12-29T06:42:06.748Z,52.06
2022-12-29T06:44:58.506Z,51.81
2022-12-29T06:47:26.339Z,52.05
2022-12-29T06:49:54.091Z,51.85
2022-12-29T06:52:21.920Z,52.20
2022-12-29T06:54:49.674Z,51.91
2022-12-29T06:57:17.512Z,51.77
2022-12-29T06:59:45.256Z,51.74
2022-12-29T07:02:15.666Z,51.92
2022-12-29T07:04:44.166Z,51.86
2022-12-29T07:07:11.928Z,51.95
2022-12-29T07:09:39.722Z,52.09
2022-12-29T07:12:07.691Z,52.14
2022-12-29T07:14:42.354Z,52.15
2022-12-29T07:17:11.369Z,52.22
2022-12-29T07:19:39.469Z,52.14
2022-12-29T07:22:07.345Z,52.08
2022-12-29T07:24:38.582Z,52.05
2022-12-29T07:27:06.380Z,51.94
2022-12-29T07:29:34.361Z,52.21
2022-12-29T07:32:02.178Z,52.17
2022-12-29T07:34:30.248Z,52.17
2022-12-29T07:36:58.125Z,52.26
2022-12-29T07:39:26.308Z,52.15
2022-12-29T07:41:56.171Z,52.20
2022-12-29T07:44:27.710Z,52.30
2022-12-29T07:47:00.489Z,52.44
2022-12-29T07:49:28.407Z,52.31
2022-12-29T07:51:56.178Z,52.47
2022-12-29T07:54:24.709Z,52.62
2022-12-29T07:56:52.533Z,52.78
2022-12-29T07:59:20.484Z,52.79
2022-12-29T08:01:48.424Z,53.01
2022-12-29T08:04:16.369Z,53.04
2022-12-29T08:06:46.510Z,53.12
2022-12-29T08:09:21.709Z,53.31
2022-12-29T08:11:50.084Z,53.43
2022-12-29T08:14:18.124Z,53.51
2022-12-29T08:16:46.079Z,53.39
2022-12-29T08:19:14.463Z,53.76
2022-12-29T08:21:42.428Z,53.80
2022-12-29T08:24:10.245Z,53.74
2022-12-29T08:26:37.995Z,53.85
2022-12-29T08:29:05.799Z,53.85
2022-12-29T08:31:33.589Z,53.72
2022-12-29T08:34:02.459Z,53.96
2022-12-29T08:36:31.489Z,53.76
2022-12-29T08:38:59.341Z,53.63
2022-12-29T08:41:27.230Z,53.77
2022-12-29T08:43:55.522Z,53.64
2022-12-29T08:46:23.369Z,53.61
2022-12-29T08:48:51.667Z,53.43
2022-12-29T08:51:24.452Z,53.21
2022-12-29T08:53:53.180Z,53.16
2022-12-29T08:56:21.259Z,53.26
2022-12-29T08:58:53.104Z,53.32
2022-12-29T09:01:22.511Z,53.27
2022-12-29T09:06:40.438Z,53.10
2022-12-29T09:09:08.552Z,52.92
2022-12-29T09:11:36.452Z,52.97
2022-12-29T09:14:04.785Z,52.97
2022-12-29T09:16:33.207Z,52.96
2022-12-29T09:19:02.855Z,52.85
2022-12-29T09:21:30.681Z,52.87
2022-12-29T09:23:58.627Z,52.91
2022-12-29T09:26:26.410Z,52.83
2022-12-29T09:28:54.625Z,52.61
2022-12-29T09:31:23.301Z,52.69
2022-12-29T09:33:51.258Z,52.74
2022-12-29T09:36:18.970Z,52.64
2022-12-29T09:38:47.049Z,52.48
2022-12-29T09:41:16.380Z,52.19
2022-12-29T09:43:53.802Z,51.65
2022-12-29T09:46:38.331Z,51.52
2022-12-29T09:49:27.452Z,51.26
2022-12-29T09:51:57.687Z,51.07
2022-12-29T09:54:37.835Z,50.85
2022-12-29T09:57:14.312Z,50.94
2022-12-29T09:59:43.663Z,50.55
2022-12-29T10:02:30.785Z,50.81
2022-12-29T10:04:59.210Z,50.66
2022-12-29T10:07:30.774Z,50.89
2022-12-29T10:10:24.219Z,50.76
2022-12-29T10:13:01.249Z,51.04
2022-12-29T10:16:06.405Z,51.05
2022-12-29T10:19:12.201Z,51.18
2022-12-29T10:22:10.688Z,51.06
2022-12-29T10:24:39.766Z,51.25
2022-12-29T10:27:14.584Z,51.38
2022-12-29T10:29:47.428Z,51.36
2022-12-29T10:32:38.960Z,51.20
2022-12-29T10:35:14.132Z,51.34
2022-12-29T10:37:51.643Z,51.38
2022-12-29T10:40:27.295Z,51.44
2022-12-29T10:42:56.796Z,51.60
2022-12-29T10:45:28.487Z,51.65
2022-12-29T10:48:01.292Z,51.41
2022-12-29T10:50:30.735Z,51.28
2022-12-29T10:53:02.706Z,51.13
2022-12-29T10:55:34.677Z,51.01
2022-12-29T10:58:05.836Z,51.23
2022-12-29T11:00:34.095Z,51.08
2022-12-29T11:03:16.843Z,50.46
2022-12-29T11:05:53.471Z,50.52
2022-12-29T11:08:25.669Z,50.38
2022-12-29T11:11:02.407Z,50.24
2022-12-29T11:13:38.615Z,50.20
2022-12-29T11:20:44.927Z,49.92
2022-12-29T11:23:45.626Z,49.70
2022-12-29T11:26:22.003Z,49.20
2022-12-29T11:29:08.590Z,49.05
2022-12-29T11:31:43.416Z,49.07
2022-12-29T11:34:18.743Z,49.07
2022-12-29T11:36:47.469Z,48.54
2022-12-29T11:39:34.620Z,48.57
2022-12-29T11:42:03.744Z,48.51
2022-12-29T11:44:38.024Z,48.07
2022-12-29T11:47:06.549Z,48.01
2022-12-29T11:49:34.548Z,48.23
2022-12-29T11:52:02.374Z,48.21
2022-12-29T11:54:36.113Z,48.30
2022-12-29T11:57:15.921Z,48.32
2022-12-29T11:59:50.869Z,48.51
2022-12-29T12:02:21.629Z,48.41
2022-12-29T12:04:52.727Z,48.11
2022-12-29T12:07:25.580Z,47.69
2022-12-29T12:10:04.861Z,47.20
2022-12-29T12:12:56.363Z,46.73
2022-12-29T12:15:30.675Z,46.89
2022-12-29T12:18:04.743Z,46.62
2022-12-29T12:21:05.792Z,46.47
2022-12-29T12:23:43.409Z,45.74
2022-12-29T12:26:19.392Z,45.75
2022-12-29T12:28:51.172Z,45.79
2022-12-29T12:31:38.150Z,45.85
2022-12-29T12:34:12.699Z,46.07
2022-12-29T12:36:49.824Z,46.18
2022-12-29T12:39:32.640Z,46.35
2022-12-29T12:42:03.176Z,46.37
2022-12-29T12:44:36.732Z,46.36
2022-12-29T12:47:10.518Z,46.27
2022-12-29T12:49:56.848Z,46.41
2022-12-29T12:52:35.434Z,46.39
2022-12-29T12:55:07.639Z,46.52
2022-12-29T12:58:16.808Z,46.66
2022-12-29T13:00:59.722Z,47.03
2022-12-29T13:03:39.294Z,47.22
2022-12-29T13:06:35.321Z,47.49
2022-12-29T13:09:30.869Z,47.78
2022-12-29T13:12:04.903Z,48.03
2022-12-29T13:14:51.250Z,48.33
2022-12-29T13:17:31.571Z,48.55
2022-12-29T13:20:21.568Z,48.62
2022-12-29T13:23:18.566Z,48.60
2022-12-29T13:25:54.076Z,48.71
2022-12-29T13:28:32.982Z,48.75
2022-12-29T13:31:13.093Z,48.72
2022-12-29T13:34:08.720Z,48.46
2022-12-29T13:36:44.420Z,48.64
2022-12-29T13:39:21.139Z,48.51
2022-12-29T13:41:57.186Z,48.22
2022-12-29T13:44:36.096Z,47.84
2022-12-29T13:47:38.020Z,47.63
2022-12-29T13:50:13.706Z,46.82
2022-12-29T13:53:02.963Z,46.87
2022-12-29T13:56:05.791Z,46.89
2022-12-29T13:58:55.749Z,47.66
2022-12-29T14:01:33.321Z,48.37
2022-12-29T14:04:04.973Z,48.68
2022-12-29T14:06:41.531Z,49.31
2022-12-29T14:09:41.948Z,49.82
2022-12-29T14:12:40.091Z,50.17
2022-12-29T14:15:10.938Z,50.51
2022-12-29T14:17:45.357Z,50.82
2022-12-29T14:20:23.756Z,50.98
2022-12-29T14:23:25.678Z,51.15
2022-12-29T14:26:05.692Z,51.53
2022-12-29T14:28:49.116Z,51.71
2022-12-29T14:31:20.057Z,52.05
2022-12-29T14:34:06.561Z,52.14
2022-12-29T14:36:36.570Z,52.42
2022-12-29T14:39:05.329Z,52.64
2022-12-29T14:41:42.405Z,52.72
2022-12-29T14:44:19.658Z,52.84
2022-12-29T14:46:57.180Z,52.97
2022-12-29T14:49:33.690Z,53.13
2022-12-29T14:52:28.237Z,53.16
2022-12-29T14:55:19.480Z,53.33
2022-12-29T14:58:21.826Z,53.26
2022-12-29T15:00:50.164Z,53.24
2022-12-29T15:03:20.896Z,53.34
2022-12-29T15:05:57.080Z,53.39
2022-12-29T15:08:33.125Z,53.58
2022-12-29T15:11:13.219Z,53.71
2022-12-29T15:13:44.117Z,53.92
2022-12-29T15:16:32.228Z,54.02
2022-12-29T15:19:01.170Z,54.00
2022-12-29T15:21:34.178Z,54.22
2022-12-29T15:24:02.057Z,54.46
2022-12-29T15:26:45.438Z,54.60
2022-12-29T15:29:31.392Z,54.60
2022-12-29T15:32:18.736Z,54.84
2022-12-29T15:34:49.099Z,54.77
2022-12-29T15:37:25.816Z,54.83
2022-12-29T15:39:55.512Z,54.74
2022-12-29T15:42:33.451Z,54.83
2022-12-29T15:45:10.693Z,54.76
2022-12-29T15:47:39.799Z,54.85
2022-12-29T15:50:15.750Z,55.00
2022-12-29T15:52:43.475Z,55.04
2022-12-29T15:55:21.929Z,55.17
2022-12-29T15:57:49.861Z,55.04
2022-12-29T16:00:35.724Z,55.11
2022-12-29T16:03:05.548Z,55.11
2022-12-29T16:05:35.882Z,55.34
2022-12-29T16:08:05.152Z,55.23
2022-12-29T16:10:37.646Z,55.39
2022-12-29T16:13:26.892Z,55.34
2022-12-29T16:15:59.321Z,55.46
2022-12-29T16:18:35.284Z,55.37
2022-12-29T16:21:07.350Z,55.33
2022-12-29T16:23:37.599Z,55.43
2022-12-29T16:26:17.443Z,55.40
2022-12-29T16:28:48.745Z,55.40
2022-12-29T16:31:24.228Z,55.38
2022-12-29T16:33:54.263Z,55.43
2022-12-29T16:36:33.878Z,55.49
2022-12-29T16:39:47.197Z,55.40
2022-12-29T16:42:34.516Z,55.34
2022-12-29T16:45:21.078Z,55.48
2022-12-29T16:48:01.375Z,55.54
2022-12-29T16:50:29.400Z,55.50
2022-12-29T16:52:57.331Z,55.56
2022-12-29T16:55:25.286Z,55.65
2022-12-29T16:57:57.274Z,55.65
2022-12-29T17:00:27.854Z,55.72
2022-12-29T17:02:59.440Z,55.79
2022-12-29T17:05:27.730Z,55.76
2022-12-29T17:07:58.506Z,55.88
2022-12-29T17:10:46.481Z,55.92
2022-12-29T17:13:14.373Z,55.87
2022-12-29T17:15:42.496Z,55.91
2022-12-29T17:18:13.837Z,55.90
2022-12-29T17:20:42.547Z,55.91
2022-12-29T17:23:19.909Z,55.97
2022-12-29T17:25:54.037Z,56.01
2022-12-29T17:28:27.715Z,55.96
2022-12-29T17:31:02.467Z,56.01
2022-12-29T17:33:36.117Z,56.07
2022-12-29T17:36:11.779Z,56.04
2022-12-29T17:38:39.976Z,55.96
2022-12-29T17:41:14.493Z,56.01
2022-12-29T17:43:42.442Z,55.96
2022-12-29T17:46:10.476Z,55.90
2022-12-29T17:48:38.336Z,56.04
2022-12-29T17:51:06.491Z,56.17
2022-12-29T17:53:34.309Z,56.17
2022-12-29T17:56:02.028Z,56.22
2022-12-29T17:58:31.817Z,56.31
2022-12-29T18:01:01.601Z,56.41
2022-12-29T18:03:32.184Z,56.64
2022-12-29T18:06:00.256Z,56.58
2022-12-29T18:08:31.050Z,56.65
2022-12-29T18:10:59.071Z,56.61
2022-12-29T18:13:39.329Z,56.79
2022-12-29T18:16:12.732Z,56.95
2022-12-29T18:18:40.610Z,56.86
2022-12-29T18:21:15.596Z,56.85
2022-12-29T18:23:43.450Z,57.02
2022-12-29T18:26:27.686Z,56.94
2022-12-29T18:28:57.440Z,57.03
2022-12-29T18:31:33.192Z,57.04
2022-12-29T18:34:03.165Z,57.24
2022-12-29T18:36:30.914Z,57.30
2022-12-29T18:38:58.695Z,57.26
2022-12-29T18:41:31.345Z,57.32
2022-12-29T18:43:59.863Z,57.43
2022-12-29T18:46:28.277Z,57.43
2022-12-29T18:48:56.222Z,57.45
2022-12-29T18:51:26.378Z,57.43
2022-12-29T18:53:54.788Z,57.57
2022-12-29T18:56:23.763Z,57.55
2022-12-29T18:58:53.331Z,57.63
2022-12-29T19:01:27.663Z,57.71
2022-12-29T19:03:55.697Z,57.58
2022-12-29T19:06:23.527Z,57.55
2022-12-29T19:08:51.242Z,57.53
2022-12-29T19:11:19.096Z,57.53
2022-12-29T19:13:46.833Z,57.65
2022-12-29T19:16:20.737Z,57.70
2022-12-29T19:19:05.858Z,57.67
2022-12-29T19:21:37.761Z,57.68
2022-12-29T19:24:06.362Z,57.68
2022-12-29T19:26:37.010Z,57.79
2022-12-29T19:29:12.528Z,57.85
2022-12-29T19:31:40.524Z,57.88
2022-12-29T19:34:08.496Z,57.94
2022-12-29T19:36:39.272Z,58.12
2022-12-29T19:39:07.302Z,58.02
2022-12-29T19:41:36.006Z,58.12
2022-12-29T19:44:03.930Z,58.05
2022-12-29T19:46:31.948Z,57.90
2022-12-29T19:49:00.345Z,57.98
2022-12-29T19:51:28.281Z,57.99
2022-12-29T19:53:56.297Z,58.02
2022-12-29T19:56:24.398Z,57.91
2022-12-29T19:58:52.367Z,57.97
2022-12-29T20:01:22.608Z,57.99
2022-12-29T20:03:51.135Z,58.03
2022-12-29T20:06:19.271Z,58.08
2022-12-29T20:08:47.463Z,58.10
2022-12-29T20:11:17.616Z,58.19
2022-12-29T20:13:46.114Z,58.09
2022-12-29T20:16:17.260Z,58.00
2022-12-29T20:18:45.941Z,58.07
2022-12-29T20:21:17.645Z,58.04
2022-12-29T20:23:46.043Z,58.00
2022-12-29T20:26:25.489Z,57.96
2022-12-29T20:28:53.987Z,57.96
2022-12-29T20:31:40.278Z,57.99
2022-12-29T20:34:09.700Z,58.00
2022-12-29T20:36:41.237Z,58.06
2022-12-29T20:39:17.926Z,58.07
2022-12-29T20:41:46.379Z,58.07
2022-12-29T20:44:14.159Z,58.17
2022-12-29T20:46:44.291Z,58.12
2022-12-29T20:49:12.535Z,58.26
2022-12-29T20:54:35.508Z,58.31
2022-12-29T20:57:06.905Z,58.53
2022-12-29T20:59:34.919Z,58.53
2022-12-29T21:02:02.908Z,58.66
2022-12-29T21:04:50.229Z,58.70
2022-12-29T21:07:20.364Z,58.80
2022-12-29T21:09:48.311Z,58.67
2022-12-29T21:12:16.111Z,58.77
2022-12-29T21:14:46.025Z,58.78
2022-12-29T21:17:14.052Z,58.77
2022-12-29T21:19:41.815Z,58.75
2022-12-29T21:22:09.555Z,58.78
2022-12-29T21:24:38.634Z,58.70
2022-12-29T21:27:06.578Z,58.61
2022-12-29T21:29:34.342Z,58.71
2022-12-29T21:32:06.490Z,58.74
2022-12-29T21:34:35.615Z,58.78
2022-12-29T21:37:03.416Z,58.82
2022-12-29T21:39:31.239Z,58.85
2022-12-29T21:42:00.559Z,58.90
2022-12-29T21:44:47.323Z,58.92
2022-12-29T21:47:15.223Z,58.97
2022-12-29T21:49:42.991Z,59.10
2022-12-29T21:52:10.728Z,59.10
2022-12-29T21:54:57.007Z,59.27
2022-12-29T21:57:43.786Z,59.16
2022-12-29T22:00:31.451Z,59.13
2022-12-29T22:03:23.098Z,59.23
2022-12-29T22:06:10.689Z,59.35
2022-12-29T22:08:58.521Z,59.35
2022-12-29T22:11:46.450Z,59.37
2022-12-29T22:14:14.359Z,59.47
2022-12-29T22:16:42.128Z,59.39
2022-12-29T22:19:11.028Z,59.39
2022-12-29T22:21:38.751Z,59.50
2022-12-29T22:24:06.894Z,59.56
2022-12-29T22:26:34.665Z,59.64
2022-12-29T22:29:02.448Z,59.57
2022-12-29T22:31:32.700Z,59.70
2022-12-29T22:34:02.954Z,59.72
2022-12-29T22:36:32.311Z,59.54
2022-12-29T22:39:00.297Z,59.59
2022-12-29T22:41:28.111Z,59.55
2022-12-29T22:43:55.836Z,59.55
2022-12-29T22:46:23.737Z,59.40
2022-12-29T22:48:52.090Z,59.55
2022-12-29T22:51:19.885Z,59.45
2022-12-29T22:53:51.283Z,59.55
2022-12-29T22:56:19.446Z,59.44
2022-12-29T22:58:48.297Z,59.53
2022-12-29T23:01:18.305Z,59.45
2022-12-29T23:03:46.214Z,59.59
2022-12-29T23:06:16.315Z,59.56
2022-12-29T23:08:44.596Z,59.54
2022-12-29T23:11:13.296Z,59.63
2022-12-29T23:13:42.129Z,59.61
2022-12-29T23:16:10.120Z,59.54
2022-12-29T23:18:37.977Z,59.67
2022-12-29T23:21:05.941Z,59.76
2022-12-29T23:23:52.562Z,59.71
2022-12-29T23:26:30.186Z,59.87
2022-12-29T23:29:00.493Z,59.89
2022-12-29T23:31:29.032Z,59.89
2022-12-29T23:33:58.042Z,59.86
2022-12-29T23:36:26.563Z,59.80
2022-12-29T23:38:54.639Z,59.78
2022-12-29T23:41:22.717Z,59.85
2022-12-29T23:43:50.476Z,59.88
2022-12-29T23:46:20.679Z,59.99
2022-12-29T23:48:48.689Z,59.83
2022-12-29T23:51:16.521Z,59.81
2022-12-29T23:53:45.792Z,59.94
2022-12-29T23:56:18.794Z,59.86
2022-12-29T23:58:46.860Z,59.88
